Time;durP1;ratioP1;P1;durP2;ratioP2;P2;SDS_P1;SDS_P2;PMS_P1;PMS_P2;Temp;Humidity;BMP_temperature;BMP_pressure;BME280_temperature;BME280_humidity;BME280_pressure;Samples;Min_cycle;Max_cycle;Signal;HPM_P1;HPM_P2
2021/03/27 00:02:10;;;;;;;29.98;14.00;;;11.40;99.90;;;;;;5011878;28;20074;-73
2021/03/27 00:04:42;;;;;;;21.75;13.18;;;11.40;99.90;;;;;;5011433;28;20112;-74
2021/03/27 00:07:23;;;;;;;20.25;13.23;;;11.30;99.90;;;;;;5011586;28;20034;-74
2021/03/27 00:09:58;;;;;;;33.53;15.98;;;11.20;99.90;;;;;;5012006;28;20033;-74
2021/03/27 00:12:44;;;;;;;23.23;14.38;;;11.10;99.90;;;;;;5011174;28;20038;-73
2021/03/27 00:15:34;;;;;;;25.80;14.38;;;11.00;99.90;;;;;;5010653;28;20030;-73
2021/03/27 00:18:11;;;;;;;27.33;14.02;;;10.90;99.90;;;;;;5010607;28;20046;-76
2021/03/27 00:21:13;;;;;;;17.52;11.43;;;10.80;99.90;;;;;;5011581;28;20109;-73
2021/03/27 00:24:00;;;;;;;15.97;10.83;;;10.90;99.90;;;;;;4993653;28;20049;-74
2021/03/27 00:26:44;;;;;;;19.58;11.38;;;10.90;99.90;;;;;;5014957;28;20042;-74
2021/03/27 00:29:33;;;;;;;22.90;13.90;;;10.90;99.90;;;;;;5015240;28;20475;-73
2021/03/27 00:32:04;;;;;;;21.10;10.85;;;10.90;99.90;;;;;;5014980;28;20037;-73
2021/03/27 00:34:39;;;;;;;21.92;13.00;;;10.90;99.90;;;;;;5014501;28;20554;-75
2021/03/27 00:37:10;;;;;;;33.30;12.40;;;10.90;99.90;;;;;;5014424;28;20042;-76
2021/03/27 00:39:42;;;;;;;18.38;10.77;;;10.90;99.90;;;;;;5014519;28;20038;-75
2021/03/27 00:42:14;;;;;;;15.38;8.65;;;10.90;99.90;;;;;;5012906;28;20065;-74
2021/03/27 00:44:43;;;;;;;;;;;10.90;99.90;;;;;;5014510;28;20022;-74
2021/03/27 00:47:13;;;;;;;18.08;10.00;;;11.00;99.90;;;;;;5014180;28;19906;-76
2021/03/27 00:49:51;;;;;;;18.23;9.60;;;10.90;99.90;;;;;;5014236;28;20041;-73
2021/03/27 00:52:19;;;;;;;15.50;9.73;;;11.00;99.90;;;;;;5014073;28;20061;-74
2021/03/27 00:54:46;;;;;;;24.23;9.95;;;11.00;99.90;;;;;;5014130;28;20126;-74
2021/03/27 00:57:26;;;;;;;17.40;9.70;;;10.90;99.90;;;;;;5011995;28;20084;-73
2021/03/27 01:00:00;;;;;;;19.85;10.15;;;10.90;99.90;;;;;;5011940;28;20018;-75
2021/03/27 01:02:27;;;;;;;16.48;8.65;;;10.90;99.90;;;;;;5000805;28;20042;-75
2021/03/27 01:04:54;;;;;;;17.83;10.60;;;10.90;99.90;;;;;;4996790;28;20356;-75
2021/03/27 01:07:23;;;;;;;17.10;11.02;;;10.90;99.90;;;;;;5014069;28;20046;-76
2021/03/27 01:09:57;;;;;;;13.82;8.93;;;10.80;99.90;;;;;;5014521;28;20057;-75
2021/03/27 01:12:31;;;;;;;11.88;7.38;;;10.90;99.90;;;;;;5014349;28;20034;-74
2021/03/27 01:15:02;;;;;;;12.35;8.07;;;10.90;99.90;;;;;;5014128;28;20033;-74
2021/03/27 01:17:31;;;;;;;19.88;9.02;;;11.00;99.90;;;;;;5014075;28;20042;-73
2021/03/27 01:20:03;;;;;;;12.38;7.63;;;11.00;99.90;;;;;;5014658;28;20072;-72
2021/03/27 01:22:29;;;;;;;13.40;7.97;;;11.00;99.90;;;;;;5014621;28;21052;-73
2021/03/27 01:25:02;;;;;;;11.57;7.20;;;11.00;99.90;;;;;;5014521;28;20618;-76
2021/03/27 01:27:46;;;;;;;9.75;6.15;;;11.10;99.90;;;;;;4996622;28;20565;-73
2021/03/27 01:30:19;;;;;;;8.80;6.13;;;11.20;99.90;;;;;;5010278;28;20125;-73
2021/03/27 01:33:18;;;;;;;8.90;6.32;;;11.20;99.90;;;;;;5013143;28;20038;-73
2021/03/27 01:35:48;;;;;;;11.68;6.80;;;11.30;99.90;;;;;;5013490;28;20061;-73
2021/03/27 01:38:19;;;;;;;20.25;6.95;;;11.30;99.90;;;;;;5013546;28;20105;-73
2021/03/27 01:41:10;;;;;;;10.10;6.90;;;11.40;99.90;;;;;;5013532;28;20121;-73
2021/03/27 01:44:21;;;;;;;13.18;6.53;;;11.40;99.90;;;;;;5011662;28;20116;-73
2021/03/27 01:46:56;;;;;;;10.38;6.00;;;11.40;99.90;;;;;;4959129;28;20038;-72
2021/03/27 01:49:43;;;;;;;12.48;7.15;;;11.40;99.90;;;;;;5012497;28;20038;-74
2021/03/27 01:52:23;;;;;;;14.05;7.40;;;11.40;99.90;;;;;;5013022;28;20030;-73
2021/03/27 01:55:01;;;;;;;8.38;5.85;;;11.40;99.90;;;;;;5007212;28;20038;-73
2021/03/27 01:57:39;;;;;;;8.55;5.05;;;11.40;99.90;;;;;;5013279;28;20041;-76
2021/03/27 02:00:08;;;;;;;10.30;4.43;;;11.50;99.90;;;;;;5012812;28;20030;-76
2021/03/27 02:02:42;;;;;;;10.07;4.72;;;11.50;99.90;;;;;;5013055;28;20030;-73
2021/03/27 02:05:16;;;;;;;10.77;5.25;;;11.70;99.90;;;;;;5000381;28;20096;-74
2021/03/27 02:07:50;;;;;;;9.98;4.78;;;11.70;99.90;;;;;;4985811;28;20026;-70
2021/03/27 02:11:05;;;;;;;9.15;4.47;;;11.80;99.90;;;;;;5012978;28;20064;-74
2021/03/27 02:13:49;;;;;;;9.05;5.00;;;11.90;99.90;;;;;;4996899;28;20050;-74
2021/03/27 02:16:39;;;;;;;11.02;4.50;;;12.00;99.90;;;;;;4986716;28;20095;-73
2021/03/27 02:19:15;;;;;;;7.03;4.75;;;12.00;99.90;;;;;;5012631;28;20464;-75
2021/03/27 02:22:00;;;;;;;7.13;4.50;;;12.10;99.90;;;;;;5012713;28;20026;-76
2021/03/27 02:24:46;;;;;;;10.85;5.13;;;12.10;99.90;;;;;;5012689;28;20450;-76
2021/03/27 02:27:37;;;;;;;10.10;5.45;;;12.10;99.90;;;;;;5012900;28;20517;-72
2021/03/27 02:30:19;;;;;;;11.38;7.05;;;12.10;99.90;;;;;;4989944;28;20044;-75
2021/03/27 02:32:54;;;;;;;11.82;7.75;;;12.10;99.90;;;;;;5012747;28;20045;-75
2021/03/27 02:35:38;;;;;;;13.10;7.18;;;12.10;99.90;;;;;;4993335;28;20593;-73
2021/03/27 02:38:23;;;;;;;13.57;7.38;;;12.10;99.90;;;;;;4992943;28;20121;-73
2021/03/27 02:41:01;;;;;;;13.00;7.78;;;12.10;99.90;;;;;;4992590;28;20097;-74
2021/03/27 02:43:42;;;;;;;9.57;6.80;;;12.00;99.90;;;;;;5001715;28;20715;-76
2021/03/27 02:46:26;;;;;;;10.93;6.78;;;12.10;99.90;;;;;;5007634;28;20477;-73
2021/03/27 02:48:56;;;;;;;12.00;7.50;;;12.10;99.90;;;;;;5007463;28;20487;-72
2021/03/27 02:51:27;;;;;;;10.10;6.97;;;12.10;99.90;;;;;;4982084;28;20040;-72
2021/03/27 02:54:26;;;;;;;15.55;6.70;;;12.10;99.90;;;;;;4995344;28;20942;-75
2021/03/27 02:57:07;;;;;;;9.90;6.05;;;12.10;99.90;;;;;;5001549;28;20080;-73
2021/03/27 02:59:51;;;;;;;12.48;6.38;;;12.10;99.90;;;;;;4986247;28;20060;-73
2021/03/27 03:02:52;;;;;;;9.40;5.47;;;12.10;99.90;;;;;;5011827;28;20034;-73
2021/03/27 03:05:37;;;;;;;9.35;5.70;;;12.10;99.90;;;;;;4971493;28;20038;-74
2021/03/27 03:08:21;;;;;;;15.15;5.75;;;12.10;99.90;;;;;;4986132;28;20038;-75
2021/03/27 03:11:00;;;;;;;10.07;5.68;;;12.10;99.90;;;;;;4992604;28;20045;-73
2021/03/27 03:13:55;;;;;;;9.60;6.28;;;12.10;99.90;;;;;;4992856;28;20031;-74
2021/03/27 03:16:23;;;;;;;9.63;6.18;;;12.10;99.90;;;;;;4992802;28;20097;-75
2021/03/27 03:19:05;;;;;;;11.20;6.78;;;12.10;99.90;;;;;;4992463;28;20026;-75
2021/03/27 03:21:40;;;;;;;10.35;6.70;;;12.10;99.90;;;;;;5001398;28;20534;-74
2021/03/27 03:24:27;;;;;;;13.98;7.68;;;12.10;99.90;;;;;;4992237;28;20038;-73
2021/03/27 03:27:11;;;;;;;11.25;5.75;;;12.10;99.90;;;;;;5006120;28;20442;-73
2021/03/27 03:29:59;;;;;;;16.70;6.45;;;12.10;99.90;;;;;;4992713;28;20581;-76
2021/03/27 03:32:39;;;;;;;9.02;6.38;;;12.10;99.90;;;;;;4992690;28;20030;-74
2021/03/27 03:35:43;;;;;;;15.32;6.03;;;12.00;99.90;;;;;;4992415;28;20101;-74
2021/03/27 03:38:22;;;;;;;8.63;5.43;;;11.90;99.90;;;;;;4978489;28;20042;-73
2021/03/27 03:41:07;;;;;;;10.32;6.05;;;11.90;99.90;;;;;;4997664;28;20088;-73
2021/03/27 03:43:35;;;;;;;9.80;6.47;;;11.90;99.90;;;;;;4998149;28;20038;-73
2021/03/27 03:46:31;;;;;;;11.52;6.00;;;11.90;99.90;;;;;;4996269;28;20058;-76
2021/03/27 03:49:12;;;;;;;8.38;5.57;;;12.00;99.90;;;;;;4984436;28;20105;-74
2021/03/27 03:51:47;;;;;;;15.93;6.78;;;12.10;99.90;;;;;;4992379;28;20122;-73
2021/03/27 03:54:46;;;;;;;10.05;6.40;;;12.10;99.90;;;;;;4979329;28;20042;-74
2021/03/27 03:57:30;;;;;;;15.30;6.20;;;12.20;99.90;;;;;;4995572;28;20045;-73
2021/03/27 04:00:10;;;;;;;10.23;6.13;;;12.20;99.90;;;;;;5007818;28;20034;-74
2021/03/27 04:02:48;;;;;;;9.68;5.85;;;12.20;99.90;;;;;;5008597;28;20022;-75
2021/03/27 04:05:31;;;;;;;13.95;7.47;;;12.20;99.90;;;;;;5010448;28;20056;-74
2021/03/27 04:07:59;;;;;;;11.38;6.60;;;12.20;99.90;;;;;;5011770;28;20037;-74
2021/03/27 04:10:29;;;;;;;11.30;6.25;;;12.30;99.90;;;;;;5015259;28;20026;-74
2021/03/27 04:13:02;;;;;;;14.73;6.88;;;12.30;99.90;;;;;;5015336;28;20081;-77
2021/03/27 04:15:46;;;;;;;9.38;6.38;;;12.20;99.90;;;;;;5015338;28;20495;-72
2021/03/27 04:18:36;;;;;;;10.05;6.70;;;12.20;99.90;;;;;;5015252;28;20026;-76
2021/03/27 04:21:20;;;;;;;10.75;6.95;;;12.20;99.90;;;;;;5014465;28;20037;-73
2021/03/27 04:23:49;;;;;;;15.77;7.78;;;12.20;99.90;;;;;;5007413;28;20387;-73
2021/03/27 04:26:36;;;;;;;10.50;6.90;;;12.30;99.90;;;;;;5015288;28;20038;-73
2021/03/27 04:29:33;;;;;;;17.55;7.28;;;12.30;99.90;;;;;;5014649;28;20033;-72
2021/03/27 04:32:21;;;;;;;11.25;7.05;;;12.30;99.90;;;;;;5015164;28;20038;-71
2021/03/27 04:35:01;;;;;;;17.27;7.43;;;12.30;99.90;;;;;;4997244;28;20018;-73
2021/03/27 04:37:37;;;;;;;13.00;7.55;;;12.30;99.90;;;;;;5013558;28;20394;-73
2021/03/27 04:40:25;;;;;;;12.75;7.75;;;12.30;99.90;;;;;;5013144;28;20030;-74
2021/03/27 04:43:16;;;;;;;11.05;7.05;;;12.30;99.90;;;;;;5011929;28;20041;-73
2021/03/27 04:46:07;;;;;;;12.38;7.40;;;12.30;99.90;;;;;;4987867;28;20124;-74
2021/03/27 04:48:52;;;;;;;11.90;8.05;;;12.30;99.90;;;;;;4991644;28;20022;-74
2021/03/27 04:52:03;;;;;;;15.07;7.47;;;12.40;99.90;;;;;;5013491;28;20018;-74
2021/03/27 04:54:33;;;;;;;14.98;7.97;;;12.30;99.90;;;;;;4967390;28;20081;-77
2021/03/27 04:57:18;;;;;;;13.65;7.85;;;12.30;99.90;;;;;;5013073;28;20044;-76
2021/03/27 04:59:53;;;;;;;22.52;9.13;;;12.40;99.90;;;;;;5008062;28;20092;-76
2021/03/27 05:02:34;;;;;;;19.15;8.93;;;12.40;99.90;;;;;;5003045;28;20035;-73
2021/03/27 05:05:15;;;;;;;16.10;8.63;;;12.40;99.90;;;;;;4994409;28;20093;-72
2021/03/27 05:08:13;;;;;;;13.50;8.30;;;12.50;99.90;;;;;;4982343;28;20118;-74
2021/03/27 05:11:19;;;;;;;15.50;7.78;;;12.50;99.90;;;;;;4984150;28;20039;-75
2021/03/27 05:14:15;;;;;;;16.27;8.23;;;12.50;99.90;;;;;;4994853;28;20030;-76
2021/03/27 05:16:53;;;;;;;15.80;9.20;;;12.50;99.90;;;;;;4973233;28;20054;-73
2021/03/27 05:19:38;;;;;;;13.68;8.73;;;12.50;99.90;;;;;;4994943;28;20037;-75
2021/03/27 05:22:35;;;;;;;21.63;9.52;;;12.50;99.90;;;;;;5006000;28;20502;-73
2021/03/27 05:25:19;;;;;;;12.15;9.05;;;12.60;99.90;;;;;;5013654;28;20044;-75
2021/03/27 05:28:14;;;;;;;13.23;9.30;;;12.60;99.90;;;;;;4984969;28;20035;-73
2021/03/27 05:30:46;;;;;;;12.27;9.10;;;12.60;99.90;;;;;;4982101;28;20447;-74
2021/03/27 05:33:18;;;;;;;15.07;8.15;;;12.60;99.90;;;;;;4994004;28;20026;-73
2021/03/27 05:35:57;;;;;;;17.23;8.98;;;12.70;99.90;;;;;;4981598;28;20038;-77
2021/03/27 05:39:02;;;;;;;18.83;9.55;;;12.60;99.90;;;;;;5008316;28;20034;-76
2021/03/27 05:41:40;;;;;;;14.52;10.07;;;12.70;99.90;;;;;;4994892;28;20317;-74
2021/03/27 05:44:21;;;;;;;17.98;10.15;;;12.70;99.90;;;;;;5007531;28;20034;-74
2021/03/27 05:47:09;;;;;;;20.05;10.43;;;12.60;99.90;;;;;;5003847;28;20042;-74
2021/03/27 05:50:12;;;;;;;18.55;9.90;;;12.70;99.90;;;;;;4993914;28;20034;-76
2021/03/27 05:53:22;;;;;;;16.40;10.10;;;12.70;99.90;;;;;;4993796;28;20034;-74
2021/03/27 05:55:58;;;;;;;21.95;11.98;;;12.70;99.90;;;;;;5008481;28;20407;-74
2021/03/27 05:58:57;;;;;;;21.35;11.43;;;12.70;99.90;;;;;;5011871;28;20032;-73
2021/03/27 06:01:55;;;;;;;23.98;12.27;;;12.80;99.90;;;;;;4945951;28;20037;-73
2021/03/27 06:04:46;;;;;;;15.68;11.18;;;12.80;99.90;;;;;;5009958;28;20029;-76
2021/03/27 06:07:53;;;;;;;25.10;11.20;;;12.80;99.90;;;;;;5001759;28;20066;-74
2021/03/27 06:10:33;;;;;;;23.40;10.73;;;12.90;99.90;;;;;;4976483;28;20116;-72
2021/03/27 06:13:04;;;;;;;19.38;10.27;;;12.90;99.90;;;;;;5012372;28;20026;-73
2021/03/27 06:15:33;;;;;;;22.20;12.27;;;12.90;99.90;;;;;;5013259;28;20475;-73
2021/03/27 06:18:10;;;;;;;19.02;11.88;;;12.90;99.90;;;;;;5013170;28;20525;-72
2021/03/27 06:20:58;;;;;;;19.92;10.52;;;12.90;99.90;;;;;;5013567;28;20042;-74
2021/03/27 06:24:06;;;;;;;18.08;10.57;;;13.00;99.90;;;;;;4971464;28;20489;-72
2021/03/27 06:26:32;;;;;;;24.60;10.43;;;13.00;99.90;;;;;;5001359;28;20037;-74
2021/03/27 06:29:21;;;;;;;23.80;11.45;;;13.00;99.90;;;;;;5013309;28;20117;-74
2021/03/27 06:31:53;;;;;;;18.80;12.05;;;13.00;99.90;;;;;;5013172;28;20080;-74
2021/03/27 06:34:38;;;;;;;24.23;13.48;;;13.00;99.90;;;;;;5012956;28;20045;-73
2021/03/27 06:37:26;;;;;;;21.35;12.20;;;13.00;99.90;;;;;;5012541;28;20371;-73
2021/03/27 06:40:28;;;;;;;19.40;12.68;;;13.00;99.90;;;;;;5011058;28;20413;-74
2021/03/27 06:43:18;;;;;;;20.35;11.75;;;13.00;99.90;;;;;;4971473;28;20042;-73
2021/03/27 06:45:56;;;;;;;22.58;12.25;;;13.00;99.90;;;;;;4983784;28;20037;-73
2021/03/27 06:48:31;;;;;;;24.08;13.50;;;13.00;99.90;;;;;;4992739;28;20046;-73
2021/03/27 06:51:21;;;;;;;25.42;13.57;;;13.00;99.90;;;;;;4992462;28;20034;-73
2021/03/27 06:54:15;;;;;;;30.00;13.35;;;13.00;99.90;;;;;;4992408;28;20459;-73
2021/03/27 06:57:07;;;;;;;24.83;12.20;;;13.00;99.90;;;;;;4994680;28;20108;-73
2021/03/27 07:00:01;;;;;;;18.20;12.50;;;13.00;99.90;;;;;;4981489;28;20483;-74
2021/03/27 07:02:51;;;;;;;17.83;11.50;;;13.00;99.90;;;;;;4992293;28;20126;-73
2021/03/27 07:05:52;;;;;;;21.95;13.07;;;13.00;99.90;;;;;;4992652;28;20035;-74
2021/03/27 07:08:42;;;;;;;24.50;11.82;;;13.00;99.90;;;;;;4985190;28;20042;-77
2021/03/27 07:11:16;;;;;;;22.95;13.10;;;13.00;99.90;;;;;;4998394;28;20408;-74
2021/03/27 07:14:04;;;;;;;22.85;12.55;;;13.10;99.90;;;;;;5001869;28;20030;-74
2021/03/27 07:17:06;;;;;;;18.08;12.57;;;13.10;99.90;;;;;;4996413;28;20046;-74
2021/03/27 07:20:03;;;;;;;24.65;12.25;;;13.20;99.90;;;;;;4989915;28;20109;-72
2021/03/27 07:22:46;;;;;;;24.02;13.52;;;13.30;99.90;;;;;;4992375;28;20104;-74
2021/03/27 07:25:40;;;;;;;30.08;12.15;;;13.40;99.90;;;;;;4981574;28;20375;-74
2021/03/27 07:28:34;;;;;;;22.67;12.88;;;13.50;99.90;;;;;;4954104;28;20042;-73
2021/03/27 07:31:05;;;;;;;27.45;12.45;;;13.60;99.90;;;;;;4994585;28;20078;-74
2021/03/27 07:33:46;;;;;;;22.02;12.15;;;13.70;99.90;;;;;;4983173;28;20029;-74
2021/03/27 07:37:08;;;;;;;34.53;11.82;;;13.70;99.90;;;;;;4996229;28;20045;-74
2021/03/27 07:39:53;;;;;;;26.30;11.82;;;13.70;99.90;;;;;;4916789;29;20048;-75
2021/03/27 07:42:42;;;;;;;22.83;12.00;;;13.80;99.90;;;;;;4916882;29;20079;-75
2021/03/27 07:45:14;;;;;;;21.88;11.85;;;13.90;99.90;;;;;;4965064;28;20041;-75
2021/03/27 07:47:52;;;;;;;22.70;12.80;;;14.00;99.90;;;;;;4996517;28;20435;-75
2021/03/27 07:50:23;;;;;;;21.92;12.35;;;14.10;99.90;;;;;;4996473;28;20023;-75
2021/03/27 07:53:10;;;;;;;20.67;12.73;;;14.10;99.90;;;;;;4996629;28;20030;-75
2021/03/27 07:55:39;;;;;;;23.13;12.52;;;14.20;99.90;;;;;;4995431;28;20046;-73
2021/03/27 07:58:42;;;;;;;21.23;12.55;;;14.20;99.90;;;;;;4995904;28;20113;-76
2021/03/27 08:01:30;;;;;;;22.27;12.35;;;14.10;99.90;;;;;;4985615;28;20192;-72
2021/03/27 08:04:17;;;;;;;24.42;13.23;;;14.00;99.90;;;;;;4996086;28;20392;-73
2021/03/27 08:06:46;;;;;;;22.85;12.88;;;14.00;99.90;;;;;;4995750;28;20479;-73
2021/03/27 08:09:21;;;;;;;33.08;13.15;;;13.90;99.90;;;;;;4995945;28;20030;-73
2021/03/27 08:12:18;;;;;;;29.17;13.63;;;13.90;99.90;;;;;;4978417;28;20442;-74
2021/03/27 08:15:11;;;;;;;30.20;12.55;;;13.90;99.90;;;;;;4996019;28;20098;-74
2021/03/27 08:18:12;;;;;;;29.58;12.82;;;13.80;99.90;;;;;;4995419;28;20039;-74
2021/03/27 08:20:58;;;;;;;23.15;13.60;;;13.80;99.90;;;;;;4995236;28;20022;-74
2021/03/27 08:23:33;;;;;;;30.73;13.25;;;13.80;99.90;;;;;;4995628;28;20073;-73
2021/03/27 08:26:11;;;;;;;24.80;13.57;;;13.70;99.90;;;;;;4995705;28;20471;-76
2021/03/27 08:28:55;;;;;;;35.85;13.95;;;13.70;99.90;;;;;;4995632;28;20044;-74
2021/03/27 08:31:51;;;;;;;32.53;13.30;;;13.80;99.90;;;;;;4977589;28;20030;-73
2021/03/27 08:34:25;;;;;;;28.00;12.30;;;13.90;99.90;;;;;;4995568;28;20041;-73
2021/03/27 08:37:09;;;;;;;23.67;13.48;;;13.90;99.90;;;;;;5004428;28;20420;-76
2021/03/27 08:39:44;;;;;;;28.48;13.25;;;13.90;99.90;;;;;;5002750;28;20491;-74
2021/03/27 08:42:18;;;;;;;26.92;13.63;;;13.90;99.90;;;;;;5002685;28;20506;-73
2021/03/27 08:45:05;;;;;;;28.70;13.65;;;14.00;99.90;;;;;;5002914;28;20034;-73
2021/03/27 08:47:50;;;;;;;27.58;14.23;;;14.00;99.90;;;;;;5001114;28;20048;-72
2021/03/27 08:50:36;;;;;;;21.60;12.40;;;14.10;99.90;;;;;;4997512;28;20082;-72
2021/03/27 08:53:23;;;;;;;34.67;13.50;;;14.10;99.90;;;;;;4998959;28;20109;-73
2021/03/27 08:56:16;;;;;;;30.05;14.07;;;14.10;99.90;;;;;;4997043;28;20161;-75
2021/03/27 08:59:11;;;;;;;25.65;13.90;;;14.10;99.90;;;;;;4993251;28;20034;-72
2021/03/27 09:01:52;;;;;;;25.13;12.13;;;14.20;99.90;;;;;;4989532;28;20073;-73
2021/03/27 09:04:36;;;;;;;31.05;12.07;;;14.20;99.90;;;;;;4984289;28;20129;-74
2021/03/27 09:07:26;;;;;;;28.23;12.75;;;14.10;99.90;;;;;;5002583;28;20064;-71
2021/03/27 09:10:10;;;;;;;28.38;13.05;;;14.10;99.90;;;;;;4994713;28;20403;-72
2021/03/27 09:12:58;;;;;;;25.92;12.27;;;14.20;99.90;;;;;;4996434;28;20042;-75
2021/03/27 09:15:38;;;;;;;27.63;13.70;;;14.20;99.90;;;;;;4992906;28;20109;-73
2021/03/27 09:18:21;;;;;;;23.02;11.63;;;14.30;99.90;;;;;;4996003;28;20443;-72
2021/03/27 09:21:06;;;;;;;28.55;13.10;;;14.30;99.90;;;;;;4995198;28;20187;-72
2021/03/27 09:23:58;;;;;;;20.65;12.25;;;14.40;99.90;;;;;;4992655;28;20042;-73
2021/03/27 09:26:48;;;;;;;27.60;13.65;;;14.40;99.90;;;;;;4993727;28;20113;-73
2021/03/27 09:29:23;;;;;;;31.15;11.75;;;14.40;99.90;;;;;;4991380;28;20034;-74
2021/03/27 09:31:52;;;;;;;29.90;11.80;;;14.40;99.90;;;;;;4976069;28;20026;-72
2021/03/27 09:34:23;;;;;;;31.77;11.68;;;14.50;99.90;;;;;;4993344;28;20026;-77
2021/03/27 09:37:11;;;;;;;28.55;12.18;;;14.50;99.90;;;;;;4975960;28;20043;-74
2021/03/27 09:39:44;;;;;;;25.65;12.63;;;14.50;99.90;;;;;;4993697;28;20432;-73
2021/03/27 09:42:22;;;;;;;31.27;12.48;;;14.50;99.90;;;;;;4993260;28;20045;-73
2021/03/27 09:44:59;;;;;;;25.25;12.18;;;14.60;99.90;;;;;;5008776;28;20038;-73
2021/03/27 09:47:47;;;;;;;32.28;13.07;;;14.50;99.90;;;;;;4999069;28;20101;-73
2021/03/27 09:50:27;;;;;;;28.05;12.13;;;14.60;99.90;;;;;;4988699;28;20117;-74
2021/03/27 09:53:22;;;;;;;21.83;11.90;;;14.70;99.90;;;;;;5000917;28;20030;-72
2021/03/27 09:56:14;;;;;;;30.38;12.00;;;14.80;99.90;;;;;;4996650;28;20056;-75
2021/03/27 09:59:07;;;;;;;23.70;12.80;;;14.90;99.90;;;;;;4999180;28;20117;-72
2021/03/27 10:01:51;;;;;;;24.83;11.05;;;15.00;99.90;;;;;;4992846;28;20502;-73
2021/03/27 10:04:36;;;;;;;27.30;12.30;;;15.00;99.90;;;;;;4994875;28;20042;-74
2021/03/27 10:07:27;;;;;;;35.08;12.50;;;14.90;99.90;;;;;;5002737;28;20030;-72
2021/03/27 10:10:15;;;;;;;24.95;11.95;;;14.90;99.90;;;;;;4985865;28;20040;-74
2021/03/27 10:13:02;;;;;;;26.90;11.90;;;15.00;99.90;;;;;;5004869;28;20096;-76
2021/03/27 10:15:47;;;;;;;26.33;11.07;;;15.00;99.90;;;;;;4994770;28;20470;-74
2021/03/27 10:18:54;;;;;;;33.08;12.02;;;15.10;99.90;;;;;;4994479;28;20096;-75
2021/03/27 10:21:38;;;;;;;28.17;11.32;;;15.10;99.90;;;;;;4969588;28;20398;-73
2021/03/27 10:24:03;;;;;;;25.73;12.00;;;15.00;99.90;;;;;;4989238;28;20564;-74
2021/03/27 10:26:44;;;;;;;30.27;11.57;;;15.10;99.90;;;;;;4991990;28;20101;-74
2021/03/27 10:32:29;;;;;;;22.58;12.30;;;15.20;99.90;;;;;;4971190;28;20049;-75
2021/03/27 10:35:23;;;;;;;26.73;11.93;;;15.30;99.90;;;;;;4977769;28;20109;-74
2021/03/27 10:37:54;;;;;;;24.48;12.52;;;15.40;99.90;;;;;;4975395;28;20487;-76
2021/03/27 10:40:43;;;;;;;31.23;11.85;;;15.50;99.90;;;;;;4973364;28;20023;-74
2021/03/27 10:43:33;;;;;;;24.75;10.63;;;15.50;99.90;;;;;;4979297;28;20403;-73
2021/03/27 10:46:27;;;;;;;24.15;10.50;;;15.50;99.90;;;;;;5000720;28;20057;-75
2021/03/27 10:49:22;;;;;;;24.48;12.00;;;15.60;99.90;;;;;;4983797;28;20034;-73
2021/03/27 10:51:53;;;;;;;23.15;10.50;;;15.60;99.90;;;;;;4983281;28;20031;-73
2021/03/27 10:54:56;;;;;;;18.83;11.60;;;15.60;99.90;;;;;;4985632;28;20613;-73
2021/03/27 10:57:46;;;;;;;27.08;11.27;;;15.70;99.90;;;;;;4979588;28;20042;-75
2021/03/27 11:00:40;;;;;;;39.78;12.48;;;15.80;99.90;;;;;;4982351;28;20035;-74
2021/03/27 11:03:43;;;;;;;33.63;14.48;;;15.80;99.90;;;;;;4981092;28;20069;-76
2021/03/27 11:06:50;;;;;;;28.55;14.88;;;15.60;99.90;;;;;;4983663;28;20142;-73
2021/03/27 11:09:49;;;;;;;43.22;15.20;;;15.60;99.90;;;;;;4945817;28;20043;-73
2021/03/27 11:12:48;;;;;;;25.30;14.43;;;15.60;99.90;;;;;;4991523;28;20046;-74
2021/03/27 11:15:32;;;;;;;35.35;16.15;;;15.80;99.90;;;;;;4984992;28;20483;-74
2021/03/27 11:18:38;;;;;;;30.00;15.95;;;15.90;99.90;;;;;;4973129;28;20786;-74
2021/03/27 11:21:14;;;;;;;28.40;15.15;;;16.20;99.90;;;;;;4990400;28;20406;-73
2021/03/27 11:23:49;;;;;;;20.30;14.18;;;16.50;99.90;;;;;;4990331;28;20023;-74
2021/03/27 11:26:28;;;;;;;36.83;17.00;;;16.70;99.90;;;;;;4992247;28;20035;-74
2021/03/27 11:29:27;;;;;;;27.73;16.05;;;16.80;99.90;;;;;;4993022;28;20114;-73
2021/03/27 11:32:03;;;;;;;28.60;15.38;;;16.70;99.90;;;;;;4991049;28;20109;-73
2021/03/27 11:35:03;;;;;;;29.58;16.30;;;16.70;99.90;;;;;;4994883;28;20118;-81
2021/03/27 11:37:50;;;;;;;40.15;19.02;;;16.70;99.90;;;;;;4921137;28;21501;-83
2021/03/27 11:40:26;;;;;;;35.95;20.27;;;16.60;99.90;;;;;;4991296;28;20045;-80
2021/03/27 11:42:58;;;;;;;38.97;20.63;;;16.40;99.90;;;;;;4988766;28;20058;-77
2021/03/27 11:45:34;;;;;;;37.50;21.58;;;16.40;99.90;;;;;;4988815;28;20046;-70
2021/03/27 11:48:34;;;;;;;36.63;22.08;;;16.20;99.90;;;;;;4992728;28;20365;-73
2021/03/27 11:51:08;;;;;;;42.55;23.42;;;16.10;99.90;;;;;;4972069;28;20031;-71
2021/03/27 11:53:52;;;;;;;47.85;24.08;;;16.00;99.90;;;;;;4978097;28;20042;-71
2021/03/27 11:56:50;;;;;;;39.63;25.98;;;15.90;99.90;;;;;;4993363;28;20451;-71
2021/03/27 12:00:47;;;;;;;40.30;26.80;;;15.80;99.90;;;;;;4970597;28;20065;-70
2021/03/27 12:02:34;;;;;;;53.42;30.48;;;15.70;99.90;;;;;;5003924;28;20045;-71
2021/03/27 12:05:23;;;;;;;61.22;33.15;;;15.60;99.90;;;;;;4993067;28;20124;-74
2021/03/27 12:08:04;;;;;;;56.95;34.38;;;15.60;99.90;;;;;;4984904;28;20105;-91
2021/03/27 12:10:30;;;;;;;52.08;34.08;;;15.70;99.90;;;;;;4992824;28;20065;-79
2021/03/27 12:13:38;;;;;;;60.90;36.03;;;15.80;99.90;;;;;;4991640;28;20054;-84
2021/03/27 12:16:23;;;;;;;57.03;30.83;;;15.90;99.90;;;;;;5004960;28;20117;-86
2021/03/27 12:18:59;;;;;;;59.03;30.52;;;15.90;99.90;;;;;;5006698;28;20114;-78
2021/03/27 12:21:37;;;;;;;50.83;31.08;;;16.00;99.90;;;;;;5008663;28;20061;-76
2021/03/27 12:24:30;;;;;;;53.92;31.92;;;16.10;99.90;;;;;;5004764;28;20030;-74
2021/03/27 12:27:04;;;;;;;48.08;29.77;;;16.30;99.90;;;;;;4996560;28;20035;-82
2021/03/27 12:29:49;;;;;;;51.65;31.38;;;16.40;99.90;;;;;;4998484;28;20109;-74
2021/03/27 12:32:30;;;;;;;56.95;32.35;;;16.40;99.90;;;;;;4984374;28;20498;-77
2021/03/27 12:35:29;;;;;;;48.38;30.20;;;16.60;99.90;;;;;;4988788;28;20030;-80
2021/03/27 12:38:07;;;;;;;56.22;30.65;;;16.50;99.90;;;;;;4993946;28;20128;-82
2021/03/27 12:40:50;;;;;;;55.30;30.35;;;16.40;99.90;;;;;;4988471;28;20108;-78
2021/03/27 12:43:20;;;;;;;59.22;31.00;;;16.40;99.90;;;;;;4989247;28;20077;-73
2021/03/27 12:45:56;;;;;;;49.45;31.10;;;16.40;99.90;;;;;;4984046;28;20480;-80
2021/03/27 12:48:38;;;;;;;55.05;29.40;;;16.40;99.90;;;;;;4986638;28;20030;-78
2021/03/27 12:51:10;;;;;;;43.25;28.23;;;16.40;99.90;;;;;;4989400;28;20049;-82
2021/03/27 12:53:36;;;;;;;;;;;16.40;99.90;;;;;;4993575;28;20089;-77
2021/03/27 12:56:43;;;;;;;48.13;29.23;;;16.50;99.90;;;;;;4995161;28;20353;-70
2021/03/27 12:59:33;;;;;;;49.92;31.20;;;16.50;99.90;;;;;;4912982;29;20681;-72
2021/03/27 13:02:37;;;;;;;49.75;30.08;;;16.50;99.90;;;;;;4973350;28;20153;-71
2021/03/27 13:05:14;;;;;;;47.33;29.05;;;16.50;99.90;;;;;;4929608;29;20074;-78
2021/03/27 13:07:52;;;;;;;48.40;26.27;;;16.50;99.90;;;;;;4934613;29;20040;-70
2021/03/27 13:10:44;;;;;;;53.65;29.45;;;16.60;99.90;;;;;;4982453;28;20045;-74
2021/03/27 13:13:34;;;;;;;45.47;28.77;;;16.60;99.90;;;;;;5002679;28;20105;-78
2021/03/27 13:16:19;;;;;;;39.97;23.20;;;16.70;99.90;;;;;;5005437;28;20049;-75
2021/03/27 13:19:35;;;;;;;42.33;23.35;;;16.80;99.90;;;;;;5006868;28;20113;-75
2021/03/27 13:22:24;;;;;;;38.67;23.15;;;16.80;99.90;;;;;;4910019;29;20036;-88
2021/03/27 13:25:10;;;;;;;38.55;23.20;;;16.80;99.90;;;;;;4916707;29;20064;-70
2021/03/27 13:27:42;;;;;;;43.30;22.60;;;16.80;99.90;;;;;;4983224;28;20038;-73
2021/03/27 13:30:22;;;;;;;40.28;24.08;;;16.70;99.90;;;;;;5010298;28;20698;-72
2021/03/27 13:33:04;;;;;;;40.25;23.48;;;16.70;99.90;;;;;;4999408;28;20114;-70
2021/03/27 13:36:01;;;;;;;43.58;25.50;;;16.60;99.90;;;;;;5011248;28;20101;-89
2021/03/27 13:38:56;;;;;;;49.13;26.27;;;16.40;99.90;;;;;;5001725;28;20038;-82
2021/03/27 13:41:37;;;;;;;53.63;26.95;;;16.40;99.90;;;;;;4993836;28;20030;-75
2021/03/27 13:44:17;;;;;;;53.67;25.27;;;16.40;99.90;;;;;;4993329;28;20045;-72
2021/03/27 13:47:08;;;;;;;41.28;24.50;;;16.40;99.90;;;;;;4993514;28;20397;-69
2021/03/27 13:49:44;;;;;;;44.95;27.10;;;16.40;99.90;;;;;;5008496;28;20600;-78
2021/03/27 13:52:55;;;;;;;39.72;25.20;;;16.40;99.90;;;;;;5011787;28;20038;-72
2021/03/27 13:55:33;;;;;;;50.55;27.45;;;16.40;99.90;;;;;;4973803;28;20049;-77
2021/03/27 13:58:03;;;;;;;46.92;25.48;;;16.50;99.90;;;;;;5004224;28;20042;-78
2021/03/27 14:00:56;;;;;;;42.92;24.55;;;16.60;99.90;;;;;;5005792;28;20100;-76